Time;durP1;ratioP1;P1;durP2;ratioP2;P2;SDS_P1;SDS_P2;PMS_P1;PMS_P2;Temp;Humidity;BMP_temperature;BMP_pressure;BME280_temperature;BME280_humidity;BME280_pressure;Samples;Min_cycle;Max_cycle;Signal;HPM_P1;HPM_P2
2023/10/14 00:01:14;;;;;;;8.05;2.65;;;;;;;6.16;78.87;98889.34;5092769;28;20032;-58
2023/10/14 00:03:45;;;;;;;4.93;2.78;;;;;;;6.18;79.47;98888.13;5074596;28;20051;-59
2023/10/14 00:06:12;;;;;;;4.93;2.80;;;;;;;6.19;79.32;98881.81;5074329;28;20043;-59
2023/10/14 00:08:48;;;;;;;5.55;3.03;;;;;;;6.18;79.10;98890.75;5073020;28;20430;-59
2023/10/14 00:11:15;;;;;;;7.68;2.38;;;;;;;6.20;78.96;98886.03;5092463;28;20075;-58
2023/10/14 00:13:42;;;;;;;7.20;2.78;;;;;;;6.23;79.06;98896.13;5092319;28;20047;-58
2023/10/14 00:16:13;;;;;;;6.55;2.97;;;;;;;6.27;79.03;98889.41;5092460;28;20040;-57
2023/10/14 00:18:47;;;;;;;7.10;2.80;;;;;;;6.29;79.01;98892.63;5092274;28;20555;-59
2023/10/14 00:21:13;;;;;;;6.53;2.60;;;;;;;6.24;78.87;98884.59;5092448;28;20396;-59
2023/10/14 00:23:39;;;;;;;3.88;2.50;;;;;;;6.29;78.51;98876.81;5073768;28;20133;-59
2023/10/14 00:26:06;;;;;;;11.90;3.10;;;;;;;6.33;78.24;98877.22;5091921;28;20106;-59
2023/10/14 00:28:32;;;;;;;5.20;2.63;;;;;;;6.35;78.26;98877.75;5056937;28;20089;-59
2023/10/14 00:30:58;;;;;;;3.53;2.20;;;;;;;6.38;78.18;98874.69;5091924;28;20052;-58
2023/10/14 00:33:24;;;;;;;4.45;2.53;;;;;;;6.36;78.49;98863.59;5091862;28;20053;-59
2023/10/14 00:35:55;;;;;;;5.28;2.38;;;;;;;6.40;78.78;98862.13;5073927;28;20040;-57
2023/10/14 00:38:23;;;;;;;8.68;2.78;;;;;;;6.42;78.84;98856.63;5073341;28;20040;-60
2023/10/14 00:40:51;;;;;;;4.82;2.60;;;;;;;6.45;78.36;98861.47;5073657;28;20082;-59
2023/10/14 00:43:17;;;;;;;5.72;2.70;;;;;;;6.46;78.37;98853.31;5091793;28;20051;-60
2023/10/14 00:45:43;;;;;;;6.13;2.83;;;;;;;6.51;77.77;98856.09;5091938;28;20044;-60
2023/10/14 00:48:13;;;;;;;5.97;2.60;;;;;;;6.53;78.09;98855.84;5073585;28;20093;-58
2023/10/14 00:50:41;;;;;;;8.20;2.55;;;;;;;6.55;77.68;98849.34;5057483;28;20127;-59
2023/10/14 00:53:08;;;;;;;4.65;2.70;;;;;;;6.57;77.94;98854.41;5091793;28;20056;-59
2023/10/14 00:55:53;;;;;;;4.85;2.85;;;;;;;6.53;77.96;98840.88;5073689;28;20063;-60
2023/10/14 00:58:28;;;;;;;7.30;2.40;;;;;;;6.49;78.09;98842.34;5059671;28;20404;-57
2023/10/14 01:00:57;;;;;;;6.88;2.78;;;;;;;6.50;78.86;98851.88;5091655;28;20118;-59
2023/10/14 01:03:24;;;;;;;6.82;3.08;;;;;;;6.48;78.65;98846.00;5057509;28;20651;-59
2023/10/14 01:05:51;;;;;;;6.60;2.67;;;;;;;6.52;78.53;98838.47;5056846;28;20044;-59
2023/10/14 01:08:18;;;;;;;6.00;3.38;;;;;;;6.53;78.39;98827.72;5073332;28;20432;-60
2023/10/14 01:10:44;;;;;;;4.68;3.03;;;;;;;6.53;78.43;98833.00;5091437;28;20047;-58
2023/10/14 01:13:13;;;;;;;6.45;2.60;;;;;;;6.52;78.66;98833.19;5091385;28;20044;-59
2023/10/14 01:15:48;;;;;;;6.30;2.70;;;;;;;6.40;79.06;98832.34;5073317;28;20577;-59
2023/10/14 01:18:14;;;;;;;7.93;2.83;;;;;;;6.42;79.30;98833.75;5073590;28;20047;-59
2023/10/14 01:20:42;;;;;;;5.15;2.58;;;;;;;6.41;79.08;98828.69;5073167;28;20041;-59
2023/10/14 01:23:08;;;;;;;4.50;2.63;;;;;;;6.43;79.33;98831.91;5056429;28;20513;-59
2023/10/14 01:25:41;;;;;;;6.05;2.55;;;;;;;6.49;79.24;98829.19;5073201;28;20044;-59
2023/10/14 01:28:12;;;;;;;6.25;2.50;;;;;;;6.49;79.43;98837.06;5074511;28;20123;-59
2023/10/14 01:30:50;;;;;;;5.88;2.45;;;;;;;6.49;79.20;98831.00;5090758;28;20040;-58
2023/10/14 01:33:16;;;;;;;4.47;2.60;;;;;;;6.49;78.69;98833.66;5057060;28;20501;-59
2023/10/14 01:35:45;;;;;;;7.13;2.47;;;;;;;6.48;79.46;98818.88;5091258;28;20040;-60
2023/10/14 01:38:11;;;;;;;6.07;2.63;;;;;;;6.46;79.26;98824.34;5091376;28;20142;-59
2023/10/14 01:40:39;;;;;;;7.70;2.30;;;;;;;6.46;79.39;98824.34;5072920;28;20130;-58
2023/10/14 01:43:08;;;;;;;8.63;2.90;;;;;;;6.50;79.72;98827.34;5090934;28;20528;-59
2023/10/14 01:45:40;;;;;;;8.80;2.58;;;;;;;6.49;79.15;98833.66;5073048;28;20504;-58
2023/10/14 01:50:47;;;;;;;6.72;2.67;;;;;;;6.52;79.30;98831.34;5074012;28;20040;-58
2023/10/14 01:53:21;;;;;;;5.25;2.38;;;;;;;6.52;79.37;98823.47;5095157;28;20051;-59
2023/10/14 01:55:47;;;;;;;4.60;2.58;;;;;;;6.53;79.50;98816.34;5077384;28;20093;-58
2023/10/14 01:58:29;;;;;;;7.00;2.70;;;;;;;6.55;79.73;98819.56;5060207;28;20074;-59
2023/10/14 02:03:43;;;;;;;6.38;2.47;;;;;;;6.57;79.55;98822.81;5077007;28;20398;-58
2023/10/14 02:06:17;;;;;;;5.82;2.55;;;;;;;6.57;79.73;98813.06;5043190;28;20451;-60
2023/10/14 02:08:46;;;;;;;8.23;2.25;;;;;;;6.58;80.01;98817.28;5094463;28;20050;-60
2023/10/14 02:11:12;;;;;;;12.38;3.05;;;;;;;6.54;79.88;98808.25;5094803;28;20044;-57
2023/10/14 02:13:38;;;;;;;7.63;2.80;;;;;;;6.57;80.17;98813.06;5094453;28;20043;-59
2023/10/14 02:16:08;;;;;;;5.15;3.00;;;;;;;6.57;79.93;98810.44;5094803;28;20043;-59
2023/10/14 02:18:38;;;;;;;7.30;2.80;;;;;;;6.56;80.05;98797.50;5059507;28;20455;-58
2023/10/14 02:21:06;;;;;;;6.15;2.45;;;;;;;6.58;79.79;98793.59;5094657;28;20040;-57
2023/10/14 02:23:49;;;;;;;10.60;4.15;;;;;;;6.62;80.13;98793.97;5094395;28;20122;-59
2023/10/14 02:26:24;;;;;;;5.65;2.58;;;;;;;6.59;80.11;98792.59;5076344;28;20379;-60
2023/10/14 02:28:53;;;;;;;7.05;2.63;;;;;;;6.63;79.88;98790.28;5076124;28;20081;-59
2023/10/14 02:31:29;;;;;;;4.70;2.72;;;;;;;6.64;80.41;98791.88;5076356;28;20126;-59
2023/10/14 02:33:57;;;;;;;5.93;2.67;;;;;;;6.65;80.16;98782.16;5076154;28;20047;-59
2023/10/14 02:36:29;;;;;;;7.13;2.70;;;;;;;6.59;80.11;98781.25;5092918;28;20488;-55
2023/10/14 02:38:57;;;;;;;8.85;2.72;;;;;;;6.63;80.35;98771.88;5076228;28;20051;-58
2023/10/14 02:41:27;;;;;;;5.20;2.70;;;;;;;6.65;80.21;98771.63;5094334;28;20047;-58
2023/10/14 02:44:01;;;;;;;;;;;;;;;6.60;80.48;98756.50;5060270;28;20044;-58
2023/10/14 02:46:27;;;;;;;10.55;2.83;;;;;;;6.59;80.35;98757.56;5075852;28;20409;-59
2023/10/14 02:48:53;;;;;;;5.97;2.55;;;;;;;6.51;80.65;98748.13;5075626;28;20044;-58
2023/10/14 02:51:35;;;;;;;7.32;3.08;;;;;;;6.51;80.51;98749.97;5081587;28;20097;-60
2023/10/14 02:54:13;;;;;;;9.65;2.80;;;;;;;6.49;81.20;98742.28;5055677;28;20102;-59
2023/10/14 02:59:23;;;;;;;8.75;2.70;;;;;;;6.48;80.72;98734.63;5054390;28;20410;-59
2023/10/14 03:02:09;;;;;;;6.63;3.03;;;;;;;6.49;81.30;98746.75;5054902;28;20044;-59
2023/10/14 03:04:48;;;;;;;9.52;3.28;;;;;;;6.49;81.21;98734.38;5055357;28;20045;-58
2023/10/14 03:07:27;;;;;;;8.32;3.08;;;;;;;6.52;81.30;98731.31;5052071;28;20079;-60
2023/10/14 03:10:09;;;;;;;4.63;2.80;;;;;;;6.55;81.18;98722.16;5063046;28;20170;-58
2023/10/14 03:12:39;;;;;;;6.60;2.92;;;;;;;6.55;81.28;98719.53;5073187;28;20106;-61
2023/10/14 03:15:18;;;;;;;6.70;3.30;;;;;;;6.49;81.28;98712.53;5073253;28;20105;-58
2023/10/14 03:18:01;;;;;;;8.98;3.05;;;;;;;6.55;81.00;98709.78;5071482;28;20048;-59
2023/10/14 03:23:26;;;;;;;6.80;2.90;;;;;;;6.58;81.11;98690.91;5073158;28;20232;-60
2023/10/14 03:25:53;;;;;;;12.77;2.90;;;;;;;6.55;81.01;98685.28;5072540;28;20045;-60
2023/10/14 03:28:20;;;;;;;5.68;2.63;;;;;;;6.55;81.04;98685.28;5072830;28;20043;-59
2023/10/14 03:30:55;;;;;;;11.50;3.40;;;;;;;6.57;81.05;98686.66;5071417;28;20040;-59
2023/10/14 03:33:23;;;;;;;10.32;3.05;;;;;;;6.64;81.00;98675.22;5071859;28;20045;-59
2023/10/14 03:36:00;;;;;;;5.35;2.88;;;;;;;6.66;80.91;98678.44;5071670;28;20042;-60
2023/10/14 03:41:20;;;;;;;9.68;3.50;;;;;;;6.66;80.92;98667.91;5053068;28;20579;-59
2023/10/14 03:46:15;;;;;;;7.47;3.65;;;;;;;6.74;80.43;98663.09;5071314;28;20051;-59
2023/10/14 03:48:47;;;;;;;11.20;3.03;;;;;;;6.77;80.45;98659.19;5072297;28;20129;-59
2023/10/14 03:51:27;;;;;;;6.82;3.40;;;;;;;6.77;80.59;98665.25;5072694;28;20052;-59
2023/10/14 03:53:54;;;;;;;8.70;3.05;;;;;;;6.75;80.55;98659.41;5072609;28;20071;-60
2023/10/14 03:56:21;;;;;;;7.47;3.38;;;;;;;6.72;80.36;98667.78;5071072;28;20039;-59
2023/10/14 03:59:00;;;;;;;8.10;3.33;;;;;;;6.71;80.80;98660.91;5070807;28;20170;-59
2023/10/14 04:01:43;;;;;;;12.13;3.75;;;;;;;6.71;80.27;98645.13;5070210;28;20086;-59
2023/10/14 04:04:20;;;;;;;11.57;3.50;;;;;;;6.72;80.49;98640.63;5071255;28;20463;-60
2023/10/14 04:07:32;;;;;;;10.50;3.38;;;;;;;6.68;80.67;98628.97;5070809;28;20060;-59
2023/10/14 04:09:43;;;;;;;9.85;3.10;;;;;;;6.73;80.80;98631.69;5062879;28;20107;-59
2023/10/14 04:12:12;;;;;;;;;;;;;;;6.69;80.74;98622.66;5071542;28;20070;-58
2023/10/14 04:14:39;;;;;;;6.50;3.10;;;;;;;6.60;80.60;98620.38;5071142;28;19969;-57
2023/10/14 04:17:30;;;;;;;6.78;3.05;;;;;;;6.72;81.03;98614.31;5071868;28;20044;-58
2023/10/14 04:19:57;;;;;;;7.65;3.20;;;;;;;6.77;80.16;98615.22;5071744;28;20101;-56
2023/10/14 04:22:32;;;;;;;6.75;3.33;;;;;;;6.83;79.77;98601.13;5072315;28;20061;-60
2023/10/14 04:27:45;;;;;;;7.97;3.25;;;;;;;6.90;79.48;98605.44;5053820;28;20473;-59
2023/10/14 04:30:21;;;;;;;6.85;3.10;;;;;;;6.88;79.96;98599.59;5070678;28;20079;-59
2023/10/14 04:35:25;;;;;;;10.70;3.15;;;;;;;6.93;79.91;98589.19;5071730;28;20510;-58
2023/10/14 04:37:52;;;;;;;8.70;3.35;;;;;;;6.97;79.64;98588.50;5070289;28;20207;-60
2023/10/14 04:40:37;;;;;;;9.23;2.90;;;;;;;7.02;79.37;98588.56;5070351;28;20033;-55
2023/10/14 04:45:51;;;;;;;11.07;3.72;;;;;;;7.07;79.00;98571.28;5053413;28;20044;-59
2023/10/14 04:48:35;;;;;;;8.27;3.45;;;;;;;7.09;79.07;98575.28;5070444;28;20044;-58
2023/10/14 04:51:06;;;;;;;11.75;3.10;;;;;;;7.11;79.03;98575.81;5070516;28;20051;-59
2023/10/14 04:53:32;;;;;;;11.93;3.53;;;;;;;7.17;78.92;98560.91;5071828;28;20064;-59
2023/10/14 04:56:04;;;;;;;7.78;2.95;;;;;;;7.27;78.38;98569.03;5053475;28;20040;-59
2023/10/14 04:58:32;;;;;;;14.13;3.63;;;;;;;7.30;77.88;98558.00;5071497;28;20128;-59
2023/10/14 05:01:03;;;;;;;12.70;3.10;;;;;;;7.40;77.67;98560.81;5070004;28;20123;-57
2023/10/14 05:03:29;;;;;;;10.05;2.90;;;;;;;7.46;77.52;98551.94;5071347;28;20080;-59
2023/10/14 05:05:56;;;;;;;12.05;3.50;;;;;;;7.48;77.28;98549.09;5071095;28;20113;-58
2023/10/14 05:08:24;;;;;;;13.75;3.10;;;;;;;7.48;77.68;98543.81;5088663;28;20059;-60
2023/10/14 05:10:51;;;;;;;8.35;3.22;;;;;;;7.50;77.35;98539.13;5091565;28;20135;-58
2023/10/14 05:13:19;;;;;;;8.27;3.33;;;;;;;7.62;77.23;98539.84;5091563;28;20044;-58
2023/10/14 05:15:53;;;;;;;8.77;3.28;;;;;;;7.66;76.49;98522.50;5091293;28;20496;-59
2023/10/14 05:18:28;;;;;;;10.13;2.88;;;;;;;7.65;76.72;98515.63;5074486;28;20055;-60
2023/10/14 05:21:09;;;;;;;10.45;3.45;;;;;;;7.70;76.95;98514.91;5056209;28;20067;-58
2023/10/14 05:23:38;;;;;;;8.05;3.20;;;;;;;7.81;76.52;98514.03;5091162;28;20063;-60
2023/10/14 05:26:06;;;;;;;6.80;2.85;;;;;;;7.93;75.67;98512.09;5094753;28;20518;-59
2023/10/14 05:28:35;;;;;;;6.97;2.92;;;;;;;8.03;75.51;98508.00;5077089;28;20101;-57
2023/10/14 05:31:09;;;;;;;9.68;3.20;;;;;;;8.07;75.06;98494.09;5077444;28;20497;-57
2023/10/14 05:33:35;;;;;;;5.43;3.13;;;;;;;8.10;74.80;98495.44;5095288;28;20059;-54
2023/10/14 05:36:01;;;;;;;8.70;3.63;;;;;;;8.22;74.87;98488.22;5095078;28;20135;-59
2023/10/14 05:38:30;;;;;;;7.95;2.97;;;;;;;8.26;73.84;98484.03;5076667;28;20126;-60
2023/10/14 05:41:00;;;;;;;7.32;2.65;;;;;;;8.31;73.90;98483.31;5077199;28;20040;-57
2023/10/14 05:43:26;;;;;;;10.43;3.20;;;;;;;8.30;74.04;98493.09;5095186;28;20052;-61
2023/10/14 05:45:53;;;;;;;9.07;3.72;;;;;;;8.38;73.88;98481.28;5094391;28;20412;-57
2023/10/14 05:48:30;;;;;;;8.87;3.30;;;;;;;8.38;73.43;98476.84;5077712;28;20509;-59
2023/10/14 05:50:57;;;;;;;11.32;3.63;;;;;;;8.40;74.30;98474.75;5094829;28;20286;-58
2023/10/14 05:53:26;;;;;;;8.25;2.92;;;;;;;8.44;73.75;98479.53;5094448;28;20310;-58
2023/10/14 05:56:14;;;;;;;9.60;3.95;;;;;;;8.45;73.04;98470.59;5076684;28;20036;-59
2023/10/14 05:58:45;;;;;;;9.73;3.50;;;;;;;8.47;73.16;98464.03;5094923;28;20412;-59
2023/10/14 06:01:13;;;;;;;9.07;3.42;;;;;;;8.52;73.13;98445.56;5094955;28;20044;-59
2023/10/14 06:03:43;;;;;;;11.27;2.97;;;;;;;8.55;73.94;98454.84;5094848;28;20117;-59
2023/10/14 06:06:15;;;;;;;9.75;3.00;;;;;;;8.50;74.23;98438.94;5094907;28;20040;-58
2023/10/14 06:08:49;;;;;;;8.68;3.22;;;;;;;8.57;73.84;98431.63;5091548;28;20048;-55
2023/10/14 06:11:16;;;;;;;9.38;3.45;;;;;;;8.59;74.76;98433.00;5076131;28;20036;-58
2023/10/14 06:13:43;;;;;;;10.27;3.17;;;;;;;8.58;74.96;98431.38;5076428;28;20528;-59
2023/10/14 06:16:10;;;;;;;13.02;3.53;;;;;;;8.65;75.00;98431.19;5094489;28;20044;-59
2023/10/14 06:18:39;;;;;;;10.02;3.28;;;;;;;8.69;74.53;98424.38;5076440;28;20044;-58
2023/10/14 06:21:08;;;;;;;8.70;3.37;;;;;;;8.75;75.53;98404.09;5094217;28;20636;-58
2023/10/14 06:23:34;;;;;;;11.50;3.00;;;;;;;8.78;75.73;98420.22;5076425;28;20048;-59
2023/10/14 06:26:18;;;;;;;9.57;2.88;;;;;;;8.72;75.91;98421.22;5068483;28;20481;-59
2023/10/14 06:28:48;;;;;;;10.13;3.40;;;;;;;8.63;76.97;98407.66;5092279;28;20169;-57
2023/10/14 06:31:14;;;;;;;8.65;3.92;;;;;;;8.61;78.35;98414.22;5075546;28;20079;-59
2023/10/14 06:33:43;;;;;;;8.18;3.60;;;;;;;8.61;78.13;98412.38;5075673;28;20115;-58
2023/10/14 06:36:14;;;;;;;8.23;3.70;;;;;;;8.62;77.59;98394.72;5093289;28;20047;-58
2023/10/14 06:38:44;;;;;;;;;;;;;;;8.53;78.38;98389.06;5090749;28;20230;-54
2023/10/14 06:41:11;;;;;;;8.77;3.20;;;;;;;8.46;79.98;98377.91;5075390;28;20026;-58
2023/10/14 06:43:38;;;;;;;10.52;3.42;;;;;;;8.38;80.55;98362.44;5078964;28;20056;-56
2023/10/14 06:46:05;;;;;;;7.40;3.08;;;;;;;8.50;81.28;98364.97;5073875;28;20109;-58
2023/10/14 06:48:32;;;;;;;12.27;3.65;;;;;;;8.47;81.36;98361.03;5058409;28;20413;-58
2023/10/14 06:50:59;;;;;;;9.30;3.58;;;;;;;8.55;80.47;98368.47;5078398;28;20120;-57
2023/10/14 06:53:28;;;;;;;6.43;3.08;;;;;;;8.54;81.06;98361.59;5092227;28;20382;-57
2023/10/14 06:55:55;;;;;;;7.27;3.43;;;;;;;8.49;81.27;98350.97;5092536;28;20071;-58
2023/10/14 06:58:21;;;;;;;7.38;3.13;;;;;;;8.49;81.16;98350.19;5074704;28;20391;-56
2023/10/14 07:00:51;;;;;;;9.02;3.60;;;;;;;8.50;84.14;98339.38;5093187;28;20071;-57
2023/10/14 07:03:17;;;;;;;9.95;3.90;;;;;;;8.49;82.82;98323.78;5075178;28;20528;-54
2023/10/14 07:05:48;;;;;;;8.93;3.63;;;;;;;8.50;84.08;98322.72;5057887;28;20531;-61
2023/10/14 07:08:15;;;;;;;7.03;3.83;;;;;;;8.56;85.21;98314.63;5075336;28;20135;-61
2023/10/14 07:10:41;;;;;;;11.77;4.13;;;;;;;8.59;85.23;98308.03;5066584;28;20051;-59
2023/10/14 07:13:08;;;;;;;12.13;4.25;;;;;;;8.64;84.61;98302.78;5082787;28;20083;-58
2023/10/14 07:15:38;;;;;;;10.20;4.43;;;;;;;8.71;84.57;98299.97;5058362;28;20075;-59
2023/10/14 07:18:04;;;;;;;10.35;4.32;;;;;;;8.72;85.42;98283.84;5075171;28;20035;-58
2023/10/14 07:20:30;;;;;;;8.88;3.58;;;;;;;8.71;84.33;98279.63;5074804;28;20493;-59
2023/10/14 07:23:00;;;;;;;9.57;3.80;;;;;;;8.64;84.37;98271.88;5091850;28;20050;-60
2023/10/14 07:25:27;;;;;;;10.43;4.03;;;;;;;8.71;85.13;98274.31;5092708;28;20442;-59
2023/10/14 07:27:53;;;;;;;13.32;4.63;;;;;;;8.78;85.42;98259.03;5074549;28;20477;-57
2023/10/14 07:30:19;;;;;;;10.02;3.60;;;;;;;8.80;85.78;98256.97;5074811;28;20054;-59
2023/10/14 07:32:48;;;;;;;9.23;4.10;;;;;;;8.86;86.17;98271.78;5091397;28;20040;-59
2023/10/14 07:35:16;;;;;;;9.65;4.10;;;;;;;8.90;85.10;98264.16;5090149;28;20070;-58
2023/10/14 07:37:43;;;;;;;9.40;3.65;;;;;;;8.78;84.11;98259.03;5092392;28;20085;-58
2023/10/14 07:40:11;;;;;;;12.00;4.10;;;;;;;8.74;86.23;98251.91;5092227;28;20040;-57
2023/10/14 07:42:40;;;;;;;9.93;4.03;;;;;;;8.71;87.04;98249.75;5074640;28;20046;-59
2023/10/14 07:45:10;;;;;;;9.30;4.28;;;;;;;8.72;87.13;98238.94;5092195;28;20489;-62
2023/10/14 07:47:38;;;;;;;14.43;3.78;;;;;;;8.78;86.53;98231.84;5074212;28;20032;-62
2023/10/14 07:50:09;;;;;;;10.00;4.18;;;;;;;8.79;86.33;98228.13;5091169;28;20453;-61
2023/10/14 07:52:38;;;;;;;13.23;4.20;;;;;;;8.69;88.42;98228.88;5073801;28;20036;-60
2023/10/14 07:55:04;;;;;;;11.65;4.15;;;;;;;8.72;89.00;98217.00;5073625;28;20181;-62
2023/10/14 07:57:31;;;;;;;10.48;3.95;;;;;;;8.74;90.03;98220.97;5073501;28;20040;-59
2023/10/14 08:00:08;;;;;;;9.80;4.10;;;;;;;8.69;90.42;98210.38;5091827;28;20028;-60
2023/10/14 08:02:45;;;;;;;8.85;4.47;;;;;;;8.64;92.11;98202.41;5088600;28;20131;-56
2023/10/14 08:05:11;;;;;;;10.10;4.38;;;;;;;8.51;91.41;98200.19;5090751;28;20051;-60
2023/10/14 08:07:40;;;;;;;8.77;4.68;;;;;;;8.41;92.63;98196.44;5091751;28;20090;-62
2023/10/14 08:10:21;;;;;;;10.80;4.57;;;;;;;8.49;94.35;98195.16;5071755;28;20036;-60
2023/10/14 08:12:52;;;;;;;10.40;4.55;;;;;;;8.57;95.25;98193.91;5091933;28;20046;-59
2023/10/14 08:15:18;;;;;;;11.60;4.60;;;;;;;8.66;95.38;98178.38;5091890;28;20412;-61
2023/10/14 08:17:45;;;;;;;13.18;4.70;;;;;;;8.66;94.23;98192.38;5092084;28;20539;-60
2023/10/14 08:20:14;;;;;;;14.15;4.95;;;;;;;8.64;94.79;98197.13;5090598;28;20093;-58
2023/10/14 08:22:47;;;;;;;11.25;4.57;;;;;;;8.71;94.00;98186.34;5092062;28;20094;-61
2023/10/14 08:25:14;;;;;;;8.40;4.82;;;;;;;8.60;94.37;98183.63;5091149;28;20035;-60
2023/10/14 08:27:40;;;;;;;11.10;4.82;;;;;;;8.67;95.62;98193.97;5091433;28;20545;-60
2023/10/14 08:30:12;;;;;;;13.75;4.70;;;;;;;8.72;94.57;98177.38;5091367;28;20036;-61
2023/10/14 08:32:42;;;;;;;10.75;5.05;;;;;;;8.72;94.90;98175.50;5073594;28;20074;-60
2023/10/14 08:35:15;;;;;;;11.65;5.07;;;;;;;8.73;97.33;98177.09;5073482;28;20039;-62
2023/10/14 08:37:49;;;;;;;10.90;4.60;;;;;;;8.80;95.55;98163.69;5091624;28;20096;-61
2023/10/14 08:40:22;;;;;;;13.05;4.95;;;;;;;8.91;97.62;98160.03;5091467;28;20046;-62
2023/10/14 08:43:09;;;;;;;11.13;5.00;;;;;;;9.01;96.48;98162.72;5091622;28;20451;-60
2023/10/14 08:45:41;;;;;;;14.55;5.43;;;;;;;9.09;96.23;98153.53;5091394;28;20085;-60
2023/10/14 08:48:11;;;;;;;14.15;5.22;;;;;;;9.10;93.70;98168.34;5085583;28;20071;-63
2023/10/14 08:50:39;;;;;;;10.27;5.00;;;;;;;9.14;93.07;98153.53;5091419;28;20428;-61
2023/10/14 08:53:10;;;;;;;11.77;4.93;;;;;;;9.23;94.08;98153.84;5091180;28;20429;-60
2023/10/14 08:55:38;;;;;;;11.93;5.10;;;;;;;9.33;92.22;98149.38;5090814;28;20104;-61
2023/10/14 08:58:05;;;;;;;11.02;5.32;;;;;;;9.35;91.34;98143.81;5056385;28;20071;-61
2023/10/14 09:00:36;;;;;;;12.43;6.05;;;;;;;9.36;91.02;98132.22;5071059;28;20048;-57
2023/10/14 09:03:05;;;;;;;8.93;4.50;;;;;;;9.54;90.66;98138.88;5056704;28;20066;-60
2023/10/14 09:05:31;;;;;;;11.48;5.55;;;;;;;9.63;90.95;98142.59;5091037;28;20044;-60
2023/10/14 09:07:59;;;;;;;13.82;5.80;;;;;;;9.69;90.12;98133.59;5072610;28;20097;-60
2023/10/14 09:10:26;;;;;;;10.07;4.63;;;;;;;9.80;88.82;98131.78;5073654;28;20156;-60
2023/10/14 09:12:57;;;;;;;11.27;4.50;;;;;;;9.82;88.02;98131.50;5052714;28;20041;-59
2023/10/14 09:15:26;;;;;;;;;;;;;;;9.88;88.62;98128.63;5089732;28;20044;-62
2023/10/14 09:17:55;;;;;;;12.65;5.40;;;;;;;9.83;87.83;98122.53;5090849;28;20443;-60
2023/10/14 09:20:39;;;;;;;11.57;5.07;;;;;;;9.85;88.20;98126.47;5091531;28;20062;-60
2023/10/14 09:23:24;;;;;;;8.85;5.03;;;;;;;9.83;88.81;98114.59;5072895;28;20046;-60
2023/10/14 09:25:58;;;;;;;9.68;5.50;;;;;;;9.81;88.39;98114.84;5073287;28;20060;-60
2023/10/14 09:28:26;;;;;;;10.57;5.43;;;;;;;9.99;88.40;98116.16;5091230;28;20044;-59
2023/10/14 09:30:55;;;;;;;11.43;5.10;;;;;;;10.06;86.16;98108.78;5073077;28;20044;-60
2023/10/14 09:33:36;;;;;;;9.45;5.40;;;;;;;10.22;86.63;98110.34;5089368;28;20046;-61
2023/10/14 09:36:11;;;;;;;9.48;5.05;;;;;;;10.21;86.42;98100.81;5091373;28;20044;-61
2023/10/14 09:38:38;;;;;;;11.60;5.10;;;;;;;10.22;86.38;98105.06;5090777;28;20040;-61
2023/10/14 09:41:07;;;;;;;9.90;5.10;;;;;;;10.33;86.02;98115.69;5090957;28;20422;-61
2023/10/14 09:43:36;;;;;;;11.20;5.32;;;;;;;10.37;85.18;98106.91;5072442;28;20046;-62
2023/10/14 09:46:09;;;;;;;10.07;5.53;;;;;;;10.44;84.73;98120.69;5091086;28;20051;-61
2023/10/14 09:48:35;;;;;;;13.02;5.50;;;;;;;10.59;84.27;98125.19;5090820;28;20055;-63
2023/10/14 09:51:06;;;;;;;9.55;4.97;;;;;;;10.63;83.98;98112.97;5091165;28;20076;-61
2023/10/14 09:53:36;;;;;;;10.27;4.88;;;;;;;10.71;83.51;98122.25;5072386;28;20040;-61
2023/10/14 09:56:04;;;;;;;10.23;4.90;;;;;;;10.75;83.72;98143.69;5089421;28;20047;-61
2023/10/14 09:58:41;;;;;;;10.35;5.03;;;;;;;10.71;83.33;98118.78;5089657;28;20044;-61
2023/10/14 10:01:11;;;;;;;12.55;5.13;;;;;;;10.80;83.68;98122.50;5089394;28;20462;-61
2023/10/14 10:04:02;;;;;;;12.77;5.70;;;;;;;10.88;83.21;98113.97;5088286;28;20508;-61
2023/10/14 10:07:05;;;;;;;8.68;4.90;;;;;;;11.01;83.05;98094.03;5090518;28;20044;-61
2023/10/14 10:10:00;;;;;;;7.65;4.50;;;;;;;11.17;83.34;98106.16;5090072;28;20089;-62
2023/10/14 10:12:28;;;;;;;9.70;5.18;;;;;;;11.26;82.84;98096.56;5093056;28;20052;-61
2023/10/14 10:14:58;;;;;;;9.05;5.30;;;;;;;11.28;82.28;98104.25;5076693;28;20047;-58
2023/10/14 10:17:26;;;;;;;13.95;5.55;;;;;;;11.28;82.52;98101.59;5076232;28;20052;-61
2023/10/14 10:20:09;;;;;;;9.30;4.75;;;;;;;11.30;82.53;98102.13;5094079;28;20044;-60
2023/10/14 10:22:43;;;;;;;9.70;5.13;;;;;;;11.37;82.21;98092.78;5094346;28;20056;-58
2023/10/14 10:25:15;;;;;;;10.13;5.40;;;;;;;11.46;81.73;98090.34;5094364;28;20081;-63
2023/10/14 10:27:42;;;;;;;11.00;6.28;;;;;;;11.46;82.17;98100.97;5093983;28;20075;-62
2023/10/14 10:30:11;;;;;;;13.93;5.32;;;;;;;11.45;81.72;98095.97;5093888;28;20381;-60
2023/10/14 10:32:38;;;;;;;10.38;5.57;;;;;;;11.50;82.10;98086.09;5093212;28;20063;-61
2023/10/14 10:35:07;;;;;;;11.70;5.75;;;;;;;11.54;82.01;98068.56;5093657;28;20146;-60
2023/10/14 10:37:51;;;;;;;9.05;4.90;;;;;;;11.60;82.01;98078.06;5075884;28;20043;-60
2023/10/14 10:40:22;;;;;;;11.18;4.68;;;;;;;11.58;82.24;98088.16;5093594;28;20051;-61
2023/10/14 10:43:06;;;;;;;13.00;5.07;;;;;;;11.57;83.04;98089.22;5075710;28;20043;-60
2023/10/14 10:45:36;;;;;;;11.05;5.00;;;;;;;11.57;82.22;98093.75;5075394;28;20040;-61
2023/10/14 10:48:07;;;;;;;11.25;5.03;;;;;;;11.61;83.03;98081.50;5093762;28;20040;-61
2023/10/14 10:50:37;;;;;;;10.32;5.10;;;;;;;11.62;82.81;98082.28;5093799;28;20093;-62
2023/10/14 10:53:07;;;;;;;12.55;4.88;;;;;;;11.68;83.08;98078.56;5093794;28;20577;-65
2023/10/14 10:55:40;;;;;;;11.85;5.28;;;;;;;11.75;82.48;98077.16;5075463;28;20102;-61
2023/10/14 10:58:08;;;;;;;10.30;5.68;;;;;;;11.84;82.57;98085.34;5075266;28;20040;-61
2023/10/14 11:00:34;;;;;;;7.82;5.00;;;;;;;11.89;82.03;98081.88;5054533;28;20076;-62
2023/10/14 11:03:03;;;;;;;9.70;5.32;;;;;;;11.92;82.25;98082.13;5070952;28;20074;-62
2023/10/14 11:05:33;;;;;;;;;;;;;;;11.92;81.61;98076.81;5066397;28;20047;-62
2023/10/14 11:08:00;;;;;;;8.55;5.05;;;;;;;11.99;81.53;98077.28;5093520;28;20057;-62
2023/10/14 11:10:28;;;;;;;8.68;4.88;;;;;;;12.08;81.30;98069.50;5092824;28;20044;-64
2023/10/14 11:13:00;;;;;;;8.70;4.88;;;;;;;12.19;81.16;98067.56;5093390;28;20039;-63
2023/10/14 11:15:31;;;;;;;9.18;5.00;;;;;;;12.27;80.65;98053.66;5093034;28;20044;-62
2023/10/14 11:17:58;;;;;;;12.75;5.22;;;;;;;12.32;80.63;98058.91;5093227;28;20037;-63
2023/10/14 11:20:26;;;;;;;10.55;5.20;;;;;;;12.28;80.65;98055.25;5093274;28;20058;-63
2023/10/14 11:22:55;;;;;;;7.88;4.82;;;;;;;12.28;80.59;98045.41;5074827;28;20131;-63
2023/10/14 11:25:22;;;;;;;10.38;5.68;;;;;;;12.37;80.23;98050.91;5093159;28;20111;-63
2023/10/14 11:27:48;;;;;;;10.73;5.60;;;;;;;12.48;80.01;98055.03;5093238;28;20048;-62
2023/10/14 11:30:17;;;;;;;10.65;5.90;;;;;;;12.53;79.37;98054.22;5092643;28;20044;-61
2023/10/14 11:32:56;;;;;;;9.17;5.40;;;;;;;12.60;79.30;98046.66;5075308;28;20044;-61
2023/10/14 11:35:30;;;;;;;11.05;5.60;;;;;;;12.73;79.08;98061.97;5058367;28;20071;-63
2023/10/14 11:38:00;;;;;;;9.55;4.65;;;;;;;12.82;78.69;98063.97;5093161;28;20440;-63
2023/10/14 11:40:33;;;;;;;13.20;5.40;;;;;;;12.81;79.20;98060.53;5073540;28;20366;-63
2023/10/14 11:42:58;;;;;;;9.85;5.60;;;;;;;12.80;78.57;98053.63;5057870;28;20052;-63
2023/10/14 11:45:24;;;;;;;9.50;5.00;;;;;;;12.79;78.76;98048.56;5074568;28;20044;-62
2023/10/14 11:47:53;;;;;;;7.20;5.10;;;;;;;12.79;78.60;98052.03;5057813;28;20520;-62
2023/10/14 11:50:19;;;;;;;11.55;5.28;;;;;;;12.70;79.11;98049.19;5074617;28;20036;-63
2023/10/14 11:52:48;;;;;;;7.50;5.22;;;;;;;12.74;79.20;98049.44;5092325;28;20059;-62
2023/10/14 11:55:14;;;;;;;9.10;4.82;;;;;;;12.76;79.08;98052.59;5092823;28;20047;-62
2023/10/14 11:57:42;;;;;;;9.60;4.82;;;;;;;12.77;79.00;98048.88;5092357;28;20042;-62
2023/10/14 12:00:11;;;;;;;7.40;4.95;;;;;;;12.73;78.82;98043.34;5092513;28;20044;-61
2023/10/14 12:02:39;;;;;;;10.15;5.55;;;;;;;12.80;78.50;98032.34;5091811;28;20047;-61
2023/10/14 12:05:05;;;;;;;8.23;4.75;;;;;;;12.85;78.97;98037.63;5074160;28;20044;-63
2023/10/14 12:07:34;;;;;;;8.30;5.07;;;;;;;12.87;78.41;98039.97;5091899;28;20044;-62
2023/10/14 12:10:00;;;;;;;11.73;5.57;;;;;;;12.84;78.59;98030.69;5074728;28;20562;-61
2023/10/14 12:12:27;;;;;;;9.32;4.72;;;;;;;12.91;78.32;98033.81;5092411;28;20059;-63
2023/10/14 12:14:53;;;;;;;10.23;5.03;;;;;;;12.96;78.13;98020.44;5092356;28;20044;-62
2023/10/14 12:17:18;;;;;;;10.20;5.50;;;;;;;12.91;77.78;98019.72;5074058;28;20118;-63